createdAt,value
2023-02-26T00:02:07.609Z,7.20
2023-02-26T00:04:34.263Z,8.57
2023-02-26T00:07:01.084Z,5.63
2023-02-26T00:09:28.399Z,7.17
2023-02-26T00:11:55.659Z,8.70
2023-02-26T00:14:22.937Z,6.43
2023-02-26T00:17:06.093Z,4.90
2023-02-26T00:23:11.376Z,12.13
2023-02-26T00:25:37.918Z,9.10
2023-02-26T00:28:04.592Z,9.93
2023-02-26T00:30:31.370Z,8.93
2023-02-26T00:32:58.063Z,6.23
2023-02-26T00:35:24.832Z,7.13
2023-02-26T00:37:54.721Z,8.60
2023-02-26T00:40:25.651Z,7.13
2023-02-26T00:42:52.547Z,10.17
2023-02-26T00:45:19.547Z,8.53
2023-02-26T00:47:46.149Z,8.17
2023-02-26T00:50:21.102Z,7.93
2023-02-26T00:52:55.699Z,8.37
2023-02-26T00:55:24.161Z,8.20
2023-02-26T00:57:50.816Z,7.53
2023-02-26T01:00:18.379Z,11.97
2023-02-26T01:02:45.484Z,9.60
2023-02-26T01:05:13.014Z,9.00
2023-02-26T01:07:51.524Z,8.63
2023-02-26T01:10:52.780Z,8.80
2023-02-26T01:13:22.788Z,10.10
2023-02-26T01:15:52.821Z,6.73
2023-02-26T01:18:23.356Z,12.17
2023-02-26T01:20:56.467Z,13.07
2023-02-26T01:23:24.650Z,12.00
2023-02-26T01:25:54.822Z,9.47
2023-02-26T01:28:21.741Z,9.63
2023-02-26T01:30:48.537Z,11.83
2023-02-26T01:33:27.529Z,10.37
2023-02-26T01:36:07.325Z,8.40
2023-02-26T01:38:58.031Z,9.30
2023-02-26T01:41:30.367Z,7.83
2023-02-26T01:44:14.407Z,12.90
2023-02-26T01:46:46.928Z,8.93
2023-02-26T01:49:15.785Z,10.07
2023-02-26T01:51:46.010Z,7.93
2023-02-26T01:54:12.975Z,7.97
2023-02-26T01:56:41.093Z,7.63
2023-02-26T01:59:10.038Z,8.50
2023-02-26T02:01:37.719Z,12.13
2023-02-26T02:04:06.379Z,6.30
2023-02-26T02:06:34.485Z,5.20
2023-02-26T02:09:02.193Z,5.43
2023-02-26T02:11:28.860Z,5.93
2023-02-26T02:14:22.392Z,5.43
2023-02-26T02:17:26.363Z,5.77
2023-02-26T02:20:11.981Z,4.67
2023-02-26T02:23:00.316Z,5.10
2023-02-26T02:25:33.076Z,7.50
2023-02-26T02:28:26.282Z,6.93
2023-02-26T02:30:59.221Z,6.17
2023-02-26T02:33:32.901Z,5.53
2023-02-26T02:36:02.792Z,4.57
2023-02-26T02:38:42.827Z,4.57
2023-02-26T02:41:13.270Z,6.27
2023-02-26T02:43:41.887Z,7.20
2023-02-26T02:46:11.742Z,8.13
2023-02-26T02:48:47.811Z,6.70
2023-02-26T02:51:22.674Z,8.33
2023-02-26T02:53:51.464Z,8.67
2023-02-26T02:56:20.744Z,5.33
2023-02-26T02:58:50.125Z,9.07
2023-02-26T03:01:19.179Z,6.87
2023-02-26T03:03:52.494Z,7.17
2023-02-26T03:06:19.180Z,8.17
2023-02-26T03:08:50.162Z,5.80
2023-02-26T03:11:17.147Z,3.87
2023-02-26T03:13:45.332Z,7.97
2023-02-26T03:16:37.955Z,8.53
2023-02-26T03:19:24.047Z,5.80
2023-02-26T03:21:55.104Z,4.93
2023-02-26T03:24:51.423Z,7.70
2023-02-26T03:27:35.858Z,5.63
2023-02-26T03:30:06.365Z,4.53
2023-02-26T03:32:57.948Z,6.33
2023-02-26T03:35:35.771Z,2.83
2023-02-26T03:38:04.109Z,4.50
2023-02-26T03:40:35.276Z,8.37
2023-02-26T03:43:18.054Z,4.53
2023-02-26T03:45:47.085Z,3.10
2023-02-26T03:48:16.281Z,6.90
2023-02-26T03:50:45.227Z,5.07
2023-02-26T03:53:36.766Z,5.13
2023-02-26T03:56:21.077Z,5.60
2023-02-26T03:58:50.631Z,4.87
2023-02-26T04:01:47.612Z,3.03
2023-02-26T04:04:34.129Z,9.03
2023-02-26T04:07:01.342Z,5.50
2023-02-26T04:09:28.224Z,3.83
2023-02-26T04:11:56.463Z,1.93
2023-02-26T04:14:23.226Z,1.43
2023-02-26T04:16:52.078Z,4.27
2023-02-26T04:19:19.169Z,3.97
2023-02-26T04:21:46.554Z,4.33
2023-02-26T04:24:15.949Z,3.70
2023-02-26T04:26:44.046Z,9.60
2023-02-26T04:29:10.950Z,6.83
2023-02-26T04:31:38.352Z,4.53
2023-02-26T04:34:05.166Z,3.23
2023-02-26T04:36:32.334Z,4.30
2023-02-26T04:38:59.255Z,3.73
2023-02-26T04:41:26.046Z,5.53
2023-02-26T04:43:52.933Z,3.87
2023-02-26T04:46:26.632Z,3.67
2023-02-26T04:48:54.134Z,8.17
2023-02-26T04:51:20.772Z,3.77
2023-02-26T04:53:50.110Z,6.57
2023-02-26T04:56:17.169Z,8.80
2023-02-26T04:58:45.110Z,9.83
2023-02-26T05:01:17.267Z,5.37
2023-02-26T05:03:44.076Z,3.60
2023-02-26T05:06:10.734Z,4.47
2023-02-26T05:08:41.614Z,5.03
2023-02-26T05:11:08.692Z,2.53
2023-02-26T05:13:35.506Z,7.80
2023-02-26T05:16:02.316Z,3.30
2023-02-26T05:18:30.726Z,2.67
2023-02-26T05:20:57.405Z,3.17
2023-02-26T05:23:24.070Z,4.03
2023-02-26T05:25:50.690Z,7.33
2023-02-26T05:28:17.750Z,5.43
2023-02-26T05:30:44.612Z,3.03
2023-02-26T05:33:11.376Z,3.40
2023-02-26T05:35:38.033Z,6.40
2023-02-26T05:38:04.773Z,3.97
2023-02-26T05:40:31.364Z,3.13
2023-02-26T05:42:57.972Z,6.63
2023-02-26T05:45:24.597Z,2.20
2023-02-26T05:47:51.235Z,3.23
2023-02-26T05:50:18.144Z,5.07
2023-02-26T05:52:44.825Z,3.93
2023-02-26T05:55:12.418Z,3.10
2023-02-26T05:57:39.329Z,3.30
2023-02-26T06:00:07.221Z,4.63
2023-02-26T06:02:39.395Z,5.00
2023-02-26T06:05:06.357Z,3.37
2023-02-26T06:07:33.449Z,2.20
2023-02-26T06:10:00.447Z,4.33
2023-02-26T06:12:27.096Z,3.43
2023-02-26T06:14:54.240Z,4.87
2023-02-26T06:17:20.848Z,2.63
2023-02-26T06:19:47.512Z,3.27
2023-02-26T06:22:14.192Z,7.03
2023-02-26T06:24:40.764Z,6.57
2023-02-26T06:27:07.982Z,6.13
2023-02-26T06:29:35.213Z,2.27
2023-02-26T06:32:02.039Z,5.83
2023-02-26T06:34:29.136Z,3.63
2023-02-26T06:36:55.929Z,10.20
2023-02-26T06:39:22.650Z,5.30
2023-02-26T06:41:49.624Z,2.77
2023-02-26T06:44:16.231Z,6.30
2023-02-26T06:46:43.183Z,1.77
2023-02-26T06:49:09.831Z,4.17
2023-02-26T06:51:36.796Z,3.87
2023-02-26T06:54:03.528Z,4.90
2023-02-26T06:56:30.341Z,5.93
2023-02-26T06:58:57.073Z,6.93
2023-02-26T07:01:24.369Z,7.97
2023-02-26T07:03:51.154Z,6.60
2023-02-26T07:06:27.515Z,4.47
2023-02-26T07:08:55.016Z,5.73
2023-02-26T07:11:21.774Z,6.93
2023-02-26T07:13:48.576Z,5.03
2023-02-26T07:16:15.302Z,4.17
2023-02-26T07:18:41.917Z,6.50
2023-02-26T07:21:08.586Z,6.30
2023-02-26T07:23:35.244Z,3.40
2023-02-26T07:26:02.359Z,5.03
2023-02-26T07:28:29.427Z,4.33
2023-02-26T07:30:57.446Z,4.10
2023-02-26T07:33:25.103Z,3.63
2023-02-26T07:35:51.703Z,5.93
2023-02-26T07:38:19.618Z,5.97
2023-02-26T07:40:46.948Z,9.10
2023-02-26T07:43:13.573Z,3.70
2023-02-26T07:45:40.167Z,5.43
2023-02-26T07:48:06.731Z,4.63
2023-02-26T07:50:33.950Z,2.30
2023-02-26T07:53:00.718Z,5.80
2023-02-26T07:55:27.851Z,4.90
2023-02-26T07:57:54.503Z,6.17
2023-02-26T08:00:21.554Z,2.93
2023-02-26T08:02:48.432Z,5.43
2023-02-26T08:05:15.174Z,4.00
2023-02-26T08:07:41.865Z,5.30
2023-02-26T08:10:08.834Z,3.40
2023-02-26T08:12:36.718Z,4.43
2023-02-26T08:15:04.026Z,2.80
2023-02-26T08:17:31.143Z,2.90
2023-02-26T08:19:57.685Z,3.63
2023-02-26T08:22:24.429Z,4.97
2023-02-26T08:24:51.122Z,3.67
2023-02-26T08:27:18.116Z,7.43
2023-02-26T08:29:46.366Z,2.87
2023-02-26T08:32:13.457Z,8.30
2023-02-26T08:34:40.258Z,4.63
2023-02-26T08:37:09.307Z,4.43
2023-02-26T08:39:38.485Z,2.63
2023-02-26T08:42:06.041Z,3.17
2023-02-26T08:44:33.053Z,3.73
2023-02-26T08:47:00.135Z,3.73
2023-02-26T08:49:27.132Z,2.07
2023-02-26T08:51:54.587Z,5.17
2023-02-26T08:54:21.429Z,3.10
2023-02-26T08:56:48.043Z,4.07
2023-02-26T08:59:15.198Z,3.30
2023-02-26T09:01:42.282Z,2.50
2023-02-26T09:04:08.939Z,1.43
2023-02-26T09:06:35.836Z,3.87
2023-02-26T09:09:02.508Z,3.27
2023-02-26T09:11:30.852Z,5.90
2023-02-26T09:13:59.092Z,3.53
2023-02-26T09:16:26.696Z,4.10
2023-02-26T09:18:54.952Z,2.30
2023-02-26T09:21:21.834Z,2.00
2023-02-26T09:23:48.405Z,5.27
2023-02-26T09:26:15.158Z,1.70
2023-02-26T09:28:42.014Z,5.37
2023-02-26T09:31:08.924Z,4.30
2023-02-26T09:33:36.110Z,3.97
2023-02-26T09:36:02.848Z,4.33
2023-02-26T09:38:29.454Z,1.70
2023-02-26T09:40:55.987Z,2.77
2023-02-26T09:43:41.182Z,2.70
2023-02-26T09:46:25.265Z,2.43
2023-02-26T09:48:54.622Z,2.20
2023-02-26T09:51:22.589Z,3.33
2023-02-26T09:53:50.374Z,4.63
2023-02-26T09:56:19.244Z,3.53
2023-02-26T09:58:46.187Z,3.37
2023-02-26T10:01:16.181Z,4.67
2023-02-26T10:03:45.872Z,2.50
2023-02-26T10:06:23.487Z,1.70
2023-02-26T10:09:01.418Z,5.97
2023-02-26T10:11:34.291Z,4.77
2023-02-26T10:14:06.379Z,4.50
2023-02-26T10:16:38.508Z,3.37
2023-02-26T10:19:08.346Z,1.67
2023-02-26T10:21:38.287Z,1.73
2023-02-26T10:24:08.331Z,1.17
2023-02-26T10:26:40.654Z,2.43
2023-02-26T10:29:26.117Z,1.80
2023-02-26T10:32:00.900Z,3.43
2023-02-26T10:34:33.014Z,3.10
2023-02-26T10:36:59.642Z,3.53
2023-02-26T10:39:32.110Z,3.33
2023-02-26T10:42:01.985Z,5.07
2023-02-26T10:44:38.186Z,3.63
2023-02-26T10:47:04.814Z,0.60
2023-02-26T10:49:49.211Z,1.87
2023-02-26T10:52:26.151Z,2.63
2023-02-26T10:54:55.776Z,2.60
2023-02-26T10:57:29.072Z,2.60
2023-02-26T10:59:55.726Z,1.63
2023-02-26T11:02:37.123Z,1.53
2023-02-26T11:05:07.800Z,7.97
2023-02-26T11:07:36.618Z,1.97
2023-02-26T11:10:03.826Z,1.80
2023-02-26T11:12:32.378Z,1.10
2023-02-26T11:15:00.972Z,3.43
2023-02-26T11:17:32.469Z,5.23
2023-02-26T11:20:01.945Z,1.93
2023-02-26T11:22:30.086Z,1.97
2023-02-26T11:24:57.658Z,3.20
2023-02-26T11:27:26.782Z,3.37
2023-02-26T11:29:55.857Z,3.63
2023-02-26T11:32:24.083Z,1.40
2023-02-26T11:34:51.597Z,1.10
2023-02-26T11:37:19.849Z,1.57
2023-02-26T11:39:47.064Z,2.57
2023-02-26T11:42:14.503Z,1.43
2023-02-26T11:44:43.904Z,3.60
2023-02-26T11:47:13.778Z,2.10
2023-02-26T11:50:07.291Z,2.73
2023-02-26T11:52:41.680Z,1.20
2023-02-26T11:55:38.588Z,2.03
2023-02-26T11:58:14.809Z,3.83
2023-02-26T12:00:41.435Z,1.80
2023-02-26T12:03:15.719Z,2.53
2023-02-26T12:05:42.655Z,3.10
2023-02-26T12:08:17.650Z,1.30
2023-02-26T12:10:52.043Z,2.67
2023-02-26T12:13:31.907Z,1.07
2023-02-26T12:16:03.597Z,1.53
2023-02-26T12:18:48.106Z,2.17
2023-02-26T12:21:53.422Z,1.10
2023-02-26T12:24:32.027Z,1.47
2023-02-26T12:26:58.576Z,1.00
2023-02-26T12:29:31.397Z,2.40
2023-02-26T12:32:10.396Z,1.23
2023-02-26T12:34:55.768Z,2.33
2023-02-26T12:37:31.101Z,0.83
2023-02-26T12:40:11.782Z,1.17
2023-02-26T12:42:44.944Z,1.27
2023-02-26T12:45:17.516Z,1.37
2023-02-26T12:48:02.968Z,2.40
2023-02-26T12:50:29.619Z,1.00
2023-02-26T12:52:56.198Z,2.37
2023-02-26T12:55:49.314Z,2.20
2023-02-26T12:58:22.181Z,2.67
2023-02-26T13:00:52.098Z,2.13
2023-02-26T13:03:24.797Z,2.30
2023-02-26T13:06:17.476Z,1.80
2023-02-26T13:09:04.988Z,1.20
2023-02-26T13:11:31.753Z,1.43
2023-02-26T13:14:17.158Z,1.47
2023-02-26T13:16:51.580Z,0.80
2023-02-26T13:19:21.850Z,2.53
2023-02-26T13:21:51.874Z,1.83
2023-02-26T13:24:20.774Z,1.10
2023-02-26T13:26:48.003Z,2.30
2023-02-26T13:29:14.993Z,1.47
2023-02-26T13:31:43.852Z,1.60
2023-02-26T13:34:13.937Z,1.63
2023-02-26T13:36:41.066Z,2.07
2023-02-26T13:39:26.550Z,2.63
2023-02-26T13:42:05.650Z,2.40
2023-02-26T13:45:02.039Z,1.00
2023-02-26T13:47:32.749Z,1.63
2023-02-26T13:50:05.817Z,1.87
2023-02-26T13:52:35.194Z,2.27
2023-02-26T13:55:02.881Z,1.50
2023-02-26T13:57:33.071Z,1.67
2023-02-26T14:00:02.202Z,2.00
2023-02-26T14:02:49.988Z,1.53
2023-02-26T14:05:28.713Z,1.87
2023-02-26T14:08:01.506Z,2.40
2023-02-26T14:10:36.823Z,1.43
2023-02-26T14:13:03.403Z,1.20
2023-02-26T14:15:39.409Z,1.03
2023-02-26T14:18:19.072Z,2.10
2023-02-26T14:20:46.675Z,1.63
2023-02-26T14:23:18.694Z,2.20
2023-02-26T14:25:50.670Z,1.47
2023-02-26T14:28:37.503Z,2.40
2023-02-26T14:31:22.567Z,0.73
2023-02-26T14:34:00.502Z,3.27
2023-02-26T14:36:36.299Z,1.77
2023-02-26T14:39:05.918Z,1.40
2023-02-26T14:41:39.165Z,1.63
2023-02-26T14:44:16.054Z,1.87
2023-02-26T14:46:43.404Z,1.27
2023-02-26T14:49:24.917Z,4.17
2023-02-26T14:52:10.095Z,3.77
2023-02-26T14:54:45.313Z,1.60
2023-02-26T14:57:14.218Z,2.10
2023-02-26T14:59:49.960Z,1.13
2023-02-26T15:02:16.960Z,2.17
2023-02-26T15:04:44.019Z,1.10
2023-02-26T15:07:14.095Z,1.83
2023-02-26T15:09:59.608Z,1.53
2023-02-26T15:12:26.240Z,2.50
2023-02-26T15:15:03.156Z,1.90
2023-02-26T15:17:49.087Z,2.87
2023-02-26T15:20:15.720Z,1.47
2023-02-26T15:22:45.403Z,2.00
2023-02-26T15:25:18.534Z,1.37
2023-02-26T15:27:46.953Z,2.60
2023-02-26T15:30:15.064Z,3.03
2023-02-26T15:32:42.226Z,1.57
2023-02-26T15:35:22.173Z,1.23
2023-02-26T15:37:50.646Z,2.27
2023-02-26T15:40:17.732Z,1.23
2023-02-26T15:42:45.436Z,1.10
2023-02-26T15:45:18.687Z,2.00
2023-02-26T15:47:45.808Z,3.30
2023-02-26T15:50:16.660Z,2.07
2023-02-26T15:52:43.398Z,2.17
2023-02-26T15:55:14.961Z,3.47
2023-02-26T15:57:42.000Z,1.83
2023-02-26T16:00:10.630Z,0.53
2023-02-26T16:02:41.122Z,2.63
2023-02-26T16:05:08.300Z,1.43
2023-02-26T16:07:35.071Z,3.47
2023-02-26T16:10:05.623Z,2.57
2023-02-26T16:12:40.508Z,1.63
2023-02-26T16:15:19.020Z,1.17
2023-02-26T16:17:47.783Z,1.27
2023-02-26T16:20:15.979Z,2.40
2023-02-26T16:22:45.581Z,0.70
2023-02-26T16:25:17.845Z,2.00
2023-02-26T16:27:48.081Z,2.47
2023-02-26T16:30:17.087Z,1.83
2023-02-26T16:32:44.426Z,3.93
2023-02-26T16:35:21.551Z,2.30
2023-02-26T16:37:50.066Z,2.30
2023-02-26T16:40:27.924Z,1.03
2023-02-26T16:43:04.420Z,1.40
2023-02-26T16:45:37.202Z,1.17
2023-02-26T16:48:05.888Z,1.40
2023-02-26T16:50:34.735Z,1.10
2023-02-26T16:53:05.681Z,9.53
2023-02-26T16:55:34.039Z,1.63
2023-02-26T16:58:06.340Z,5.40
2023-02-26T17:00:36.216Z,3.57
2023-02-26T17:03:12.099Z,3.83
2023-02-26T17:05:41.013Z,3.07
2023-02-26T17:08:09.505Z,3.50
2023-02-26T17:10:41.000Z,2.73
2023-02-26T17:13:24.951Z,2.40
2023-02-26T17:15:54.474Z,2.10
2023-02-26T17:18:21.657Z,2.90
2023-02-26T17:20:48.474Z,1.83
2023-02-26T17:23:16.553Z,2.50
2023-02-26T17:25:44.535Z,4.70
2023-02-26T17:28:21.676Z,5.57
2023-02-26T17:30:48.593Z,5.03
2023-02-26T17:33:15.330Z,4.13
2023-02-26T17:35:42.587Z,2.83
2023-02-26T17:38:13.279Z,2.70
2023-02-26T17:40:40.787Z,2.50
2023-02-26T17:43:09.975Z,2.10
2023-02-26T17:45:37.618Z,4.30
2023-02-26T17:48:04.519Z,4.30
2023-02-26T17:50:38.312Z,2.73
2023-02-26T17:53:05.345Z,4.30
2023-02-26T17:55:32.551Z,3.53
2023-02-26T17:57:59.551Z,3.97
2023-02-26T18:00:27.167Z,3.77
2023-02-26T18:02:55.269Z,4.23
2023-02-26T18:05:22.147Z,3.90
2023-02-26T18:07:48.953Z,3.00
2023-02-26T18:10:17.894Z,3.13
2023-02-26T18:12:44.533Z,3.43
2023-02-26T18:15:12.724Z,4.67
2023-02-26T18:17:39.451Z,2.73
2023-02-26T18:20:07.582Z,2.73
2023-02-26T18:22:34.642Z,5.80
2023-02-26T18:25:01.350Z,5.40
2023-02-26T18:27:29.010Z,5.73
2023-02-26T18:29:55.916Z,7.23
2023-02-26T18:32:23.747Z,8.00
2023-02-26T18:34:51.257Z,3.63
2023-02-26T18:37:19.212Z,4.57
2023-02-26T18:39:46.043Z,5.13
2023-02-26T18:42:23.166Z,9.03
2023-02-26T18:44:50.211Z,6.00
2023-02-26T18:47:17.529Z,10.27
2023-02-26T18:49:44.292Z,8.80
2023-02-26T18:52:11.160Z,2.97
2023-02-26T18:54:37.927Z,6.20
2023-02-26T18:57:05.608Z,6.53
2023-02-26T18:59:33.740Z,5.10
2023-02-26T19:02:01.478Z,4.27
2023-02-26T19:04:28.442Z,5.87
2023-02-26T19:06:55.245Z,5.33
2023-02-26T19:09:22.131Z,6.03
2023-02-26T19:11:48.793Z,4.37
2023-02-26T19:14:15.395Z,7.73
2023-02-26T19:16:43.812Z,6.07
2023-02-26T19:19:12.601Z,7.27
2023-02-26T19:21:40.404Z,7.57
2023-02-26T19:24:09.117Z,6.10
2023-02-26T19:26:37.492Z,7.20
2023-02-26T19:29:05.350Z,12.33
2023-02-26T19:31:32.747Z,12.00
2023-02-26T19:33:59.621Z,8.60
2023-02-26T19:36:27.895Z,9.10
2023-02-26T19:38:54.674Z,5.43
2023-02-26T19:41:21.407Z,7.60
2023-02-26T19:43:48.468Z,9.30
2023-02-26T19:46:15.387Z,6.73
2023-02-26T19:48:42.167Z,3.50
2023-02-26T19:51:09.408Z,5.13
2023-02-26T19:53:36.611Z,5.23
2023-02-26T19:56:04.203Z,5.57
2023-02-26T19:58:31.139Z,5.40
2023-02-26T20:00:58.702Z,6.20
2023-02-26T20:03:25.495Z,3.57
2023-02-26T20:05:53.045Z,7.57
2023-02-26T20:08:21.603Z,7.00
2023-02-26T20:10:52.167Z,8.27
2023-02-26T20:13:20.430Z,9.47
2023-02-26T20:15:49.013Z,5.17
2023-02-26T20:18:16.249Z,6.37
2023-02-26T20:20:43.448Z,7.20
2023-02-26T20:23:12.883Z,4.80
2023-02-26T20:25:39.657Z,4.77
2023-02-26T20:28:06.340Z,4.87
2023-02-26T20:30:33.226Z,6.97
2023-02-26T20:32:59.982Z,5.63
2023-02-26T20:35:26.682Z,5.50
2023-02-26T20:37:53.364Z,5.93
2023-02-26T20:40:20.266Z,8.93
2023-02-26T20:42:49.939Z,6.20
2023-02-26T20:45:16.694Z,7.07
2023-02-26T20:47:43.440Z,10.30
2023-02-26T20:50:10.319Z,7.70
2023-02-26T20:52:37.020Z,4.60
2023-02-26T20:55:04.492Z,4.50
2023-02-26T20:57:32.552Z,4.63
2023-02-26T20:59:59.291Z,6.03
2023-02-26T21:02:25.933Z,3.70
2023-02-26T21:04:52.581Z,4.97
2023-02-26T21:07:22.291Z,2.30
2023-02-26T21:09:49.832Z,4.30
2023-02-26T21:12:17.026Z,3.70
2023-02-26T21:14:46.639Z,5.57
2023-02-26T21:17:14.471Z,5.70
2023-02-26T21:19:41.081Z,3.63
2023-02-26T21:22:07.826Z,3.30
2023-02-26T21:24:34.523Z,2.97
2023-02-26T21:27:01.237Z,3.60
2023-02-26T21:29:27.859Z,2.90
2023-02-26T21:31:57.130Z,2.80
2023-02-26T21:34:33.577Z,2.73
2023-02-26T21:37:01.623Z,2.83
2023-02-26T21:39:30.844Z,2.13
2023-02-26T21:41:59.324Z,2.40
2023-02-26T21:44:26.768Z,2.20
2023-02-26T21:46:53.532Z,5.13
2023-02-26T21:49:20.123Z,2.90
2023-02-26T21:51:46.751Z,5.37
2023-02-26T21:54:13.389Z,4.73
2023-02-26T21:56:40.022Z,4.53
2023-02-26T21:59:06.696Z,3.00
2023-02-26T22:01:33.467Z,3.73
2023-02-26T22:04:00.764Z,2.40
2023-02-26T22:06:27.629Z,2.30
2023-02-26T22:08:54.259Z,6.00
2023-02-26T22:11:21.145Z,3.93
2023-02-26T22:13:49.112Z,5.50
2023-02-26T22:16:16.272Z,5.93
2023-02-26T22:18:42.980Z,5.23
2023-02-26T22:21:09.666Z,4.33
2023-02-26T22:23:36.614Z,5.47
2023-02-26T22:26:03.567Z,4.40
2023-02-26T22:28:30.329Z,3.37
2023-02-26T22:30:57.513Z,5.90
2023-02-26T22:33:24.243Z,6.00
2023-02-26T22:35:50.836Z,5.27
2023-02-26T22:38:18.327Z,5.00
2023-02-26T22:40:44.958Z,3.30
2023-02-26T22:43:11.633Z,6.13
2023-02-26T22:45:38.200Z,4.93
2023-02-26T22:48:04.827Z,3.73
2023-02-26T22:50:31.460Z,3.87
2023-02-26T22:52:58.079Z,2.37
2023-02-26T22:55:24.722Z,2.17
2023-02-26T22:57:51.430Z,4.10
2023-02-26T23:00:19.368Z,3.23
2023-02-26T23:02:46.836Z,4.23
2023-02-26T23:05:13.473Z,3.97
2023-02-26T23:07:40.436Z,4.30
2023-02-26T23:10:08.491Z,7.37
2023-02-26T23:12:36.129Z,9.00
2023-02-26T23:15:03.090Z,6.73
2023-02-26T23:17:30.394Z,5.50
2023-02-26T23:19:57.075Z,3.50
2023-02-26T23:22:23.781Z,4.63
2023-02-26T23:24:50.365Z,4.97
2023-02-26T23:27:17.247Z,4.90
2023-02-26T23:29:45.463Z,4.67
2023-02-26T23:32:12.588Z,4.50
2023-02-26T23:34:39.353Z,2.93
2023-02-26T23:37:06.349Z,3.40
2023-02-26T23:39:33.076Z,4.60
2023-02-26T23:41:59.677Z,4.90
2023-02-26T23:44:26.604Z,3.10
2023-02-26T23:46:53.241Z,4.30
2023-02-26T23:49:20.191Z,3.07
2023-02-26T23:51:46.809Z,3.60
2023-02-26T23:54:13.989Z,6.73
2023-02-26T23:56:40.856Z,2.03
2023-02-26T23:59:07.781Z,4.70
